sensor_id;sensor_type;location;lat;lon;timestamp;temperature;humidity
12329;DHT22;6230;52.390;10.256;2023-08-06T00:00:03;20.10;59.80
12329;DHT22;6230;52.390;10.256;2023-08-06T00:02:28;20.10;59.60
12329;DHT22;6230;52.390;10.256;2023-08-06T00:04:54;20.10;59.60
12329;DHT22;6230;52.390;10.256;2023-08-06T00:07:20;20.20;59.60
12329;DHT22;6230;52.390;10.256;2023-08-06T00:09:45;20.20;59.60
12329;DHT22;6230;52.390;10.256;2023-08-06T00:12:11;20.20;59.40
12329;DHT22;6230;52.390;10.256;2023-08-06T00:14:36;20.20;59.40
12329;DHT22;6230;52.390;10.256;2023-08-06T00:17:02;20.30;59.40
12329;DHT22;6230;52.390;10.256;2023-08-06T00:19:27;20.30;59.40
12329;DHT22;6230;52.390;10.256;2023-08-06T00:21:53;20.30;59.30
12329;DHT22;6230;52.390;10.256;2023-08-06T00:24:18;20.30;59.50
12329;DHT22;6230;52.390;10.256;2023-08-06T00:26:44;20.30;59.40
12329;DHT22;6230;52.390;10.256;2023-08-06T00:29:10;20.30;59.40
12329;DHT22;6230;52.390;10.256;2023-08-06T00:31:35;20.30;59.30
12329;DHT22;6230;52.390;10.256;2023-08-06T00:34:01;20.30;59.20
12329;DHT22;6230;52.390;10.256;2023-08-06T00:36:26;20.40;59.20
12329;DHT22;6230;52.390;10.256;2023-08-06T00:38:52;20.40;59.10
12329;DHT22;6230;52.390;10.256;2023-08-06T00:41:17;20.50;59.00
12329;DHT22;6230;52.390;10.256;2023-08-06T00:43:43;20.50;58.90
12329;DHT22;6230;52.390;10.256;2023-08-06T00:46:08;20.50;58.90
12329;DHT22;6230;52.390;10.256;2023-08-06T00:48:34;20.50;58.90
12329;DHT22;6230;52.390;10.256;2023-08-06T00:51:01;20.50;58.90
12329;DHT22;6230;52.390;10.256;2023-08-06T00:53:27;20.50;59.00
12329;DHT22;6230;52.390;10.256;2023-08-06T00:55:52;20.40;59.20
12329;DHT22;6230;52.390;10.256;2023-08-06T00:58:18;20.30;59.60
12329;DHT22;6230;52.390;10.256;2023-08-06T01:00:44;20.20;59.90
12329;DHT22;6230;52.390;10.256;2023-08-06T01:03:09;20.10;60.20
12329;DHT22;6230;52.390;10.256;2023-08-06T01:05:35;20.00;60.30
12329;DHT22;6230;52.390;10.256;2023-08-06T01:13:45;20.10;60.00
12329;DHT22;6230;52.390;10.256;2023-08-06T01:16:16;20.00;60.00
12329;DHT22;6230;52.390;10.256;2023-08-06T01:18:42;20.00;59.90
12329;DHT22;6230;52.390;10.256;2023-08-06T01:21:14;20.10;59.80
12329;DHT22;6230;52.390;10.256;2023-08-06T01:23:41;20.10;59.70
12329;DHT22;6230;52.390;10.256;2023-08-06T01:29:10;20.20;59.60
12329;DHT22;6230;52.390;10.256;2023-08-06T01:31:38;20.30;59.90
12329;DHT22;6230;52.390;10.256;2023-08-06T01:34:09;20.20;59.80
12329;DHT22;6230;52.390;10.256;2023-08-06T01:36:35;20.20;59.70
12329;DHT22;6230;52.390;10.256;2023-08-06T01:39:01;20.20;59.70
12329;DHT22;6230;52.390;10.256;2023-08-06T01:41:27;20.20;59.70
12329;DHT22;6230;52.390;10.256;2023-08-06T01:43:52;20.20;59.70
12329;DHT22;6230;52.390;10.256;2023-08-06T01:46:18;20.20;59.70
12329;DHT22;6230;52.390;10.256;2023-08-06T01:48:43;20.10;59.80
12329;DHT22;6230;52.390;10.256;2023-08-06T01:51:09;20.10;60.00
12329;DHT22;6230;52.390;10.256;2023-08-06T01:53:35;20.00;60.50
12329;DHT22;6230;52.390;10.256;2023-08-06T01:56:00;20.00;60.70
12329;DHT22;6230;52.390;10.256;2023-08-06T01:58:26;19.90;60.80
12329;DHT22;6230;52.390;10.256;2023-08-06T02:00:51;19.90;60.90
12329;DHT22;6230;52.390;10.256;2023-08-06T02:03:17;19.90;61.10
12329;DHT22;6230;52.390;10.256;2023-08-06T02:05:42;19.80;60.90
12329;DHT22;6230;52.390;10.256;2023-08-06T02:08:08;19.90;60.90
12329;DHT22;6230;52.390;10.256;2023-08-06T02:10:34;19.90;60.80
12329;DHT22;6230;52.390;10.256;2023-08-06T02:12:59;19.90;60.80
12329;DHT22;6230;52.390;10.256;2023-08-06T02:15:25;19.90;60.80
12329;DHT22;6230;52.390;10.256;2023-08-06T02:17:50;19.90;60.70
12329;DHT22;6230;52.390;10.256;2023-08-06T02:20:16;19.90;60.60
12329;DHT22;6230;52.390;10.256;2023-08-06T02:22:42;20.00;60.50
12329;DHT22;6230;52.390;10.256;2023-08-06T02:25:07;20.00;60.50
12329;DHT22;6230;52.390;10.256;2023-08-06T02:27:33;20.00;60.60
12329;DHT22;6230;52.390;10.256;2023-08-06T02:29:59;19.90;60.70
12329;DHT22;6230;52.390;10.256;2023-08-06T02:32:24;19.90;60.90
12329;DHT22;6230;52.390;10.256;2023-08-06T02:34:50;19.90;61.00
12329;DHT22;6230;52.390;10.256;2023-08-06T02:37:15;19.80;61.00
12329;DHT22;6230;52.390;10.256;2023-08-06T02:39:41;19.90;61.10
12329;DHT22;6230;52.390;10.256;2023-08-06T02:42:08;19.80;61.20
12329;DHT22;6230;52.390;10.256;2023-08-06T02:44:34;19.80;61.20
12329;DHT22;6230;52.390;10.256;2023-08-06T02:47:01;19.80;61.10
12329;DHT22;6230;52.390;10.256;2023-08-06T02:49:26;19.80;61.00
12329;DHT22;6230;52.390;10.256;2023-08-06T02:51:52;19.90;60.90
12329;DHT22;6230;52.390;10.256;2023-08-06T02:54:18;19.90;60.90
12329;DHT22;6230;52.390;10.256;2023-08-06T02:56:45;19.90;60.80
12329;DHT22;6230;52.390;10.256;2023-08-06T02:59:11;19.90;60.70
12329;DHT22;6230;52.390;10.256;2023-08-06T03:01:36;19.90;60.60
12329;DHT22;6230;52.390;10.256;2023-08-06T03:04:02;20.00;60.70
12329;DHT22;6230;52.390;10.256;2023-08-06T03:06:28;20.00;60.70
12329;DHT22;6230;52.390;10.256;2023-08-06T03:08:54;20.00;60.50
12329;DHT22;6230;52.390;10.256;2023-08-06T03:11:19;20.00;60.50
12329;DHT22;6230;52.390;10.256;2023-08-06T03:13:45;20.00;60.50
12329;DHT22;6230;52.390;10.256;2023-08-06T03:16:10;20.00;60.50
12329;DHT22;6230;52.390;10.256;2023-08-06T03:18:36;20.00;60.50
12329;DHT22;6230;52.390;10.256;2023-08-06T03:21:01;20.00;60.50
12329;DHT22;6230;52.390;10.256;2023-08-06T03:23:27;20.00;60.40
12329;DHT22;6230;52.390;10.256;2023-08-06T03:25:52;20.00;60.40
12329;DHT22;6230;52.390;10.256;2023-08-06T03:28:18;20.00;60.30
12329;DHT22;6230;52.390;10.256;2023-08-06T03:30:43;20.10;60.20
12329;DHT22;6230;52.390;10.256;2023-08-06T03:33:09;20.10;60.20
12329;DHT22;6230;52.390;10.256;2023-08-06T03:35:34;20.10;60.20
12329;DHT22;6230;52.390;10.256;2023-08-06T03:38:00;20.10;60.10
12329;DHT22;6230;52.390;10.256;2023-08-06T03:40:26;20.10;60.10
12329;DHT22;6230;52.390;10.256;2023-08-06T03:42:51;20.10;60.10
12329;DHT22;6230;52.390;10.256;2023-08-06T03:45:17;20.10;60.00
12329;DHT22;6230;52.390;10.256;2023-08-06T03:47:42;20.20;60.10
12329;DHT22;6230;52.390;10.256;2023-08-06T03:50:08;20.20;60.10
12329;DHT22;6230;52.390;10.256;2023-08-06T03:52:34;20.30;60.10
12329;DHT22;6230;52.390;10.256;2023-08-06T03:54:59;20.30;60.00
12329;DHT22;6230;52.390;10.256;2023-08-06T03:57:25;20.30;59.90
12329;DHT22;6230;52.390;10.256;2023-08-06T03:59:50;20.40;59.90
12329;DHT22;6230;52.390;10.256;2023-08-06T04:02:16;20.40;59.90
12329;DHT22;6230;52.390;10.256;2023-08-06T04:04:41;20.40;60.60
12329;DHT22;6230;52.390;10.256;2023-08-06T04:07:07;20.40;59.90
12329;DHT22;6230;52.390;10.256;2023-08-06T04:09:32;20.40;59.90
12329;DHT22;6230;52.390;10.256;2023-08-06T04:11:58;20.40;59.90
12329;DHT22;6230;52.390;10.256;2023-08-06T04:14:25;20.30;59.90
12329;DHT22;6230;52.390;10.256;2023-08-06T04:16:51;20.30;60.00
12329;DHT22;6230;52.390;10.256;2023-08-06T04:19:16;20.30;59.90
12329;DHT22;6230;52.390;10.256;2023-08-06T04:21:42;20.30;60.00
12329;DHT22;6230;52.390;10.256;2023-08-06T04:24:08;20.30;60.00
12329;DHT22;6230;52.390;10.256;2023-08-06T04:26:33;20.20;60.10
12329;DHT22;6230;52.390;10.256;2023-08-06T04:28:59;20.20;60.10
12329;DHT22;6230;52.390;10.256;2023-08-06T04:31:24;20.10;60.20
12329;DHT22;6230;52.390;10.256;2023-08-06T04:33:50;20.10;60.50
12329;DHT22;6230;52.390;10.256;2023-08-06T04:36:15;20.00;60.50
12329;DHT22;6230;52.390;10.256;2023-08-06T04:38:41;20.00;60.50
12329;DHT22;6230;52.390;10.256;2023-08-06T04:41:10;20.10;60.50
12329;DHT22;6230;52.390;10.256;2023-08-06T04:43:36;20.10;60.40
12329;DHT22;6230;52.390;10.256;2023-08-06T04:46:01;20.10;60.30
12329;DHT22;6230;52.390;10.256;2023-08-06T04:48:27;20.10;60.40
12329;DHT22;6230;52.390;10.256;2023-08-06T04:50:52;20.10;60.50
12329;DHT22;6230;52.390;10.256;2023-08-06T04:53:18;20.10;60.50
12329;DHT22;6230;52.390;10.256;2023-08-06T04:55:44;20.10;60.50
12329;DHT22;6230;52.390;10.256;2023-08-06T04:58:10;20.20;60.50
12329;DHT22;6230;52.390;10.256;2023-08-06T05:00:36;20.20;60.40
12329;DHT22;6230;52.390;10.256;2023-08-06T05:03:01;20.30;60.40
12329;DHT22;6230;52.390;10.256;2023-08-06T05:05:27;20.30;60.20
12329;DHT22;6230;52.390;10.256;2023-08-06T05:07:54;20.30;60.20
12329;DHT22;6230;52.390;10.256;2023-08-06T05:10:20;20.40;60.20
12329;DHT22;6230;52.390;10.256;2023-08-06T05:12:46;20.40;60.10
12329;DHT22;6230;52.390;10.256;2023-08-06T05:15:11;20.40;60.10
12329;DHT22;6230;52.390;10.256;2023-08-06T05:17:37;20.50;60.00
12329;DHT22;6230;52.390;10.256;2023-08-06T05:20:03;20.50;60.00
12329;DHT22;6230;52.390;10.256;2023-08-06T05:22:29;20.50;60.00
12329;DHT22;6230;52.390;10.256;2023-08-06T05:24:54;20.60;60.00
12329;DHT22;6230;52.390;10.256;2023-08-06T05:27:20;20.60;60.00
12329;DHT22;6230;52.390;10.256;2023-08-06T05:29:45;20.60;60.00
12329;DHT22;6230;52.390;10.256;2023-08-06T05:32:11;20.60;60.00
12329;DHT22;6230;52.390;10.256;2023-08-06T05:34:36;20.70;60.00
12329;DHT22;6230;52.390;10.256;2023-08-06T05:37:03;20.70;60.00
12329;DHT22;6230;52.390;10.256;2023-08-06T05:39:29;20.70;60.00
12329;DHT22;6230;52.390;10.256;2023-08-06T05:41:54;20.70;60.00
12329;DHT22;6230;52.390;10.256;2023-08-06T05:44:21;20.70;60.10
12329;DHT22;6230;52.390;10.256;2023-08-06T05:46:46;20.70;60.10
12329;DHT22;6230;52.390;10.256;2023-08-06T05:49:12;20.60;60.10
12329;DHT22;6230;52.390;10.256;2023-08-06T05:51:39;20.60;60.20
12329;DHT22;6230;52.390;10.256;2023-08-06T05:54:04;20.60;60.30
12329;DHT22;6230;52.390;10.256;2023-08-06T05:56:30;20.60;60.30
12329;DHT22;6230;52.390;10.256;2023-08-06T05:58:55;20.60;60.30
12329;DHT22;6230;52.390;10.256;2023-08-06T06:01:21;20.50;60.60
12329;DHT22;6230;52.390;10.256;2023-08-06T06:03:47;20.50;60.70
12329;DHT22;6230;52.390;10.256;2023-08-06T06:06:12;20.50;60.80
12329;DHT22;6230;52.390;10.256;2023-08-06T06:08:38;20.50;60.70
12329;DHT22;6230;52.390;10.256;2023-08-06T06:11:03;20.40;60.70
12329;DHT22;6230;52.390;10.256;2023-08-06T06:13:29;20.40;60.80
12329;DHT22;6230;52.390;10.256;2023-08-06T06:15:55;20.40;60.90
12329;DHT22;6230;52.390;10.256;2023-08-06T06:18:21;20.40;61.00
12329;DHT22;6230;52.390;10.256;2023-08-06T06:20:47;20.40;61.10
12329;DHT22;6230;52.390;10.256;2023-08-06T06:23:13;20.40;61.10
12329;DHT22;6230;52.390;10.256;2023-08-06T06:25:49;20.40;61.10
12329;DHT22;6230;52.390;10.256;2023-08-06T06:28:17;20.40;61.10
12329;DHT22;6230;52.390;10.256;2023-08-06T06:30:43;20.50;61.10
12329;DHT22;6230;52.390;10.256;2023-08-06T06:33:08;20.50;61.00
12329;DHT22;6230;52.390;10.256;2023-08-06T06:35:34;20.60;61.00
12329;DHT22;6230;52.390;10.256;2023-08-06T06:37:59;20.60;61.00
12329;DHT22;6230;52.390;10.256;2023-08-06T06:40:25;20.60;61.00
12329;DHT22;6230;52.390;10.256;2023-08-06T06:42:51;20.70;61.00
12329;DHT22;6230;52.390;10.256;2023-08-06T06:45:16;20.70;61.70
12329;DHT22;6230;52.390;10.256;2023-08-06T06:47:42;20.80;60.90
12329;DHT22;6230;52.390;10.256;2023-08-06T06:50:08;20.80;60.80
12329;DHT22;6230;52.390;10.256;2023-08-06T06:52:34;20.80;60.70
12329;DHT22;6230;52.390;10.256;2023-08-06T06:54:59;20.80;60.80
12329;DHT22;6230;52.390;10.256;2023-08-06T06:57:25;20.80;60.80
12329;DHT22;6230;52.390;10.256;2023-08-06T06:59:50;20.80;60.80
12329;DHT22;6230;52.390;10.256;2023-08-06T07:02:16;20.90;61.00
12329;DHT22;6230;52.390;10.256;2023-08-06T07:04:41;20.90;60.90
12329;DHT22;6230;52.390;10.256;2023-08-06T07:07:07;20.90;60.80
12329;DHT22;6230;52.390;10.256;2023-08-06T07:09:32;20.90;60.90
12329;DHT22;6230;52.390;10.256;2023-08-06T07:11:58;21.00;60.90
12329;DHT22;6230;52.390;10.256;2023-08-06T07:14:25;21.00;60.90
12329;DHT22;6230;52.390;10.256;2023-08-06T07:16:51;21.00;61.00
12329;DHT22;6230;52.390;10.256;2023-08-06T07:19:16;21.10;61.00
12329;DHT22;6230;52.390;10.256;2023-08-06T07:21:42;21.10;61.00
12329;DHT22;6230;52.390;10.256;2023-08-06T07:24:07;21.10;61.00
12329;DHT22;6230;52.390;10.256;2023-08-06T07:26:33;21.10;61.00
12329;DHT22;6230;52.390;10.256;2023-08-06T07:28:59;21.10;61.10
12329;DHT22;6230;52.390;10.256;2023-08-06T07:31:24;21.20;61.20
12329;DHT22;6230;52.390;10.256;2023-08-06T07:33:50;21.20;61.20
12329;DHT22;6230;52.390;10.256;2023-08-06T07:36:16;21.20;61.20
12329;DHT22;6230;52.390;10.256;2023-08-06T07:38:41;21.20;61.20
12329;DHT22;6230;52.390;10.256;2023-08-06T07:41:07;21.30;61.30
12329;DHT22;6230;52.390;10.256;2023-08-06T07:43:33;21.30;61.30
12329;DHT22;6230;52.390;10.256;2023-08-06T07:45:59;21.30;61.30
12329;DHT22;6230;52.390;10.256;2023-08-06T07:48:26;21.40;61.40
12329;DHT22;6230;52.390;10.256;2023-08-06T07:50:55;21.50;61.40
12329;DHT22;6230;52.390;10.256;2023-08-06T07:53:25;21.50;61.20
12329;DHT22;6230;52.390;10.256;2023-08-06T07:55:54;21.60;61.20
12329;DHT22;6230;52.390;10.256;2023-08-06T07:58:21;21.70;61.30
12329;DHT22;6230;52.390;10.256;2023-08-06T08:00:46;21.70;61.20
12329;DHT22;6230;52.390;10.256;2023-08-06T08:03:13;21.80;61.20
12329;DHT22;6230;52.390;10.256;2023-08-06T08:05:39;21.90;61.10
12329;DHT22;6230;52.390;10.256;2023-08-06T08:08:05;22.00;61.00
12329;DHT22;6230;52.390;10.256;2023-08-06T08:10:31;22.10;61.00
12329;DHT22;6230;52.390;10.256;2023-08-06T08:12:57;22.20;61.00
12329;DHT22;6230;52.390;10.256;2023-08-06T08:15:24;22.30;60.80
12329;DHT22;6230;52.390;10.256;2023-08-06T08:17:51;22.40;60.90
12329;DHT22;6230;52.390;10.256;2023-08-06T08:20:17;22.50;60.80
12329;DHT22;6230;52.390;10.256;2023-08-06T08:22:43;22.60;60.70
12329;DHT22;6230;52.390;10.256;2023-08-06T08:25:08;22.70;60.70
12329;DHT22;6230;52.390;10.256;2023-08-06T08:27:34;22.80;60.60
12329;DHT22;6230;52.390;10.256;2023-08-06T08:30:00;23.00;60.50
12329;DHT22;6230;52.390;10.256;2023-08-06T08:32:25;23.10;60.30
12329;DHT22;6230;52.390;10.256;2023-08-06T08:34:51;23.20;60.30
12329;DHT22;6230;52.390;10.256;2023-08-06T08:37:16;23.20;60.30
12329;DHT22;6230;52.390;10.256;2023-08-06T08:39:42;23.10;60.20
12329;DHT22;6230;52.390;10.256;2023-08-06T08:42:08;23.20;60.40
12329;DHT22;6230;52.390;10.256;2023-08-06T08:44:35;23.30;60.40
12329;DHT22;6230;52.390;10.256;2023-08-06T08:47:08;23.40;60.40
12329;DHT22;6230;52.390;10.256;2023-08-06T08:49:37;23.40;60.20
12329;DHT22;6230;52.390;10.256;2023-08-06T08:52:03;23.50;60.20
12329;DHT22;6230;52.390;10.256;2023-08-06T08:54:34;23.60;60.30
12329;DHT22;6230;52.390;10.256;2023-08-06T08:57:00;23.60;60.30
12329;DHT22;6230;52.390;10.256;2023-08-06T08:59:27;23.80;60.20
12329;DHT22;6230;52.390;10.256;2023-08-06T09:01:53;23.90;60.20
12329;DHT22;6230;52.390;10.256;2023-08-06T09:04:20;24.00;60.00
12329;DHT22;6230;52.390;10.256;2023-08-06T09:06:50;24.10;60.00
12329;DHT22;6230;52.390;10.256;2023-08-06T09:09:29;24.10;59.90
12329;DHT22;6230;52.390;10.256;2023-08-06T09:12:00;24.20;59.90
12329;DHT22;6230;52.390;10.256;2023-08-06T09:14:29;24.20;59.60
12329;DHT22;6230;52.390;10.256;2023-08-06T09:16:55;24.20;59.80
12329;DHT22;6230;52.390;10.256;2023-08-06T09:19:21;24.20;59.90
12329;DHT22;6230;52.390;10.256;2023-08-06T09:21:47;24.30;59.90
12329;DHT22;6230;52.390;10.256;2023-08-06T09:24:15;24.30;59.80
12329;DHT22;6230;52.390;10.256;2023-08-06T09:26:43;24.30;59.80
12329;DHT22;6230;52.390;10.256;2023-08-06T09:29:10;24.40;59.80
12329;DHT22;6230;52.390;10.256;2023-08-06T09:31:43;24.50;59.70
12329;DHT22;6230;52.390;10.256;2023-08-06T09:34:16;24.70;59.70
12329;DHT22;6230;52.390;10.256;2023-08-06T09:36:43;24.90;59.70
12329;DHT22;6230;52.390;10.256;2023-08-06T09:39:35;25.00;59.40
12329;DHT22;6230;52.390;10.256;2023-08-06T09:42:01;25.10;59.30
12329;DHT22;6230;52.390;10.256;2023-08-06T09:44:30;25.20;59.20
12329;DHT22;6230;52.390;10.256;2023-08-06T09:46:57;25.30;59.20
12329;DHT22;6230;52.390;10.256;2023-08-06T09:49:48;25.40;59.10
12329;DHT22;6230;52.390;10.256;2023-08-06T09:52:13;25.50;59.10
12329;DHT22;6230;52.390;10.256;2023-08-06T09:54:43;25.70;59.10
12329;DHT22;6230;52.390;10.256;2023-08-06T09:57:09;25.80;58.80
12329;DHT22;6230;52.390;10.256;2023-08-06T09:59:37;25.70;58.70
12329;DHT22;6230;52.390;10.256;2023-08-06T10:02:12;25.70;58.80
12329;DHT22;6230;52.390;10.256;2023-08-06T10:04:39;25.80;59.00
12329;DHT22;6230;52.390;10.256;2023-08-06T10:07:04;26.00;58.90
12329;DHT22;6230;52.390;10.256;2023-08-06T10:09:30;26.10;58.70
12329;DHT22;6230;52.390;10.256;2023-08-06T10:11:57;26.00;58.50
12329;DHT22;6230;52.390;10.256;2023-08-06T10:14:26;25.90;58.50
12329;DHT22;6230;52.390;10.256;2023-08-06T10:16:52;25.80;58.70
12329;DHT22;6230;52.390;10.256;2023-08-06T10:19:19;25.80;58.80
12329;DHT22;6230;52.390;10.256;2023-08-06T10:22:08;25.90;58.80
12329;DHT22;6230;52.390;10.256;2023-08-06T10:24:58;26.10;58.70
12329;DHT22;6230;52.390;10.256;2023-08-06T10:27:34;26.30;58.70
12329;DHT22;6230;52.390;10.256;2023-08-06T10:30:24;26.50;58.50
12329;DHT22;6230;52.390;10.256;2023-08-06T10:32:52;26.70;58.40
12329;DHT22;6230;52.390;10.256;2023-08-06T10:35:34;26.90;58.30
12329;DHT22;6230;52.390;10.256;2023-08-06T10:38:18;27.10;58.10
12329;DHT22;6230;52.390;10.256;2023-08-06T10:41:02;27.30;58.10
12329;DHT22;6230;52.390;10.256;2023-08-06T10:43:28;27.50;58.00
12329;DHT22;6230;52.390;10.256;2023-08-06T10:45:55;27.60;57.80
12329;DHT22;6230;52.390;10.256;2023-08-06T10:48:40;27.60;57.70
12329;DHT22;6230;52.390;10.256;2023-08-06T10:51:10;27.60;57.70
12329;DHT22;6230;52.390;10.256;2023-08-06T10:53:37;27.40;57.60
12329;DHT22;6230;52.390;10.256;2023-08-06T10:56:19;27.40;58.50
12329;DHT22;6230;52.390;10.256;2023-08-06T10:58:45;27.30;57.90
12329;DHT22;6230;52.390;10.256;2023-08-06T11:01:11;27.40;58.00
12329;DHT22;6230;52.390;10.256;2023-08-06T11:03:37;27.50;57.90
12329;DHT22;6230;52.390;10.256;2023-08-06T11:06:04;27.50;57.70
12329;DHT22;6230;52.390;10.256;2023-08-06T11:08:34;27.50;57.80
12329;DHT22;6230;52.390;10.256;2023-08-06T11:11:11;27.50;57.80
12329;DHT22;6230;52.390;10.256;2023-08-06T11:13:45;27.50;57.80
12329;DHT22;6230;52.390;10.256;2023-08-06T11:16:22;27.70;57.80
12329;DHT22;6230;52.390;10.256;2023-08-06T11:18:50;27.90;57.80
12329;DHT22;6230;52.390;10.256;2023-08-06T11:21:19;28.20;57.60
12329;DHT22;6230;52.390;10.256;2023-08-06T11:23:45;28.50;57.30
12329;DHT22;6230;52.390;10.256;2023-08-06T11:26:10;28.70;57.10
12329;DHT22;6230;52.390;10.256;2023-08-06T11:28:36;28.80;57.10
12329;DHT22;6230;52.390;10.256;2023-08-06T11:31:01;28.90;56.90
12329;DHT22;6230;52.390;10.256;2023-08-06T11:33:28;29.00;56.80
12329;DHT22;6230;52.390;10.256;2023-08-06T11:35:55;29.20;56.70
12329;DHT22;6230;52.390;10.256;2023-08-06T11:38:24;29.30;56.70
12329;DHT22;6230;52.390;10.256;2023-08-06T11:40:50;29.30;56.70
12329;DHT22;6230;52.390;10.256;2023-08-06T11:43:21;29.40;56.70
12329;DHT22;6230;52.390;10.256;2023-08-06T11:45:48;29.40;56.80
12329;DHT22;6230;52.390;10.256;2023-08-06T11:48:14;29.30;56.60
12329;DHT22;6230;52.390;10.256;2023-08-06T11:50:39;29.30;56.60
12329;DHT22;6230;52.390;10.256;2023-08-06T11:53:05;29.20;56.60
12329;DHT22;6230;52.390;10.256;2023-08-06T11:55:31;29.30;56.70
12329;DHT22;6230;52.390;10.256;2023-08-06T11:57:57;29.40;56.70
12329;DHT22;6230;52.390;10.256;2023-08-06T12:00:25;29.50;56.50
12329;DHT22;6230;52.390;10.256;2023-08-06T12:02:51;29.40;56.40
12329;DHT22;6230;52.390;10.256;2023-08-06T12:05:21;29.40;56.50
12329;DHT22;6230;52.390;10.256;2023-08-06T12:07:50;29.20;56.50
12329;DHT22;6230;52.390;10.256;2023-08-06T12:10:17;29.10;56.60
12329;DHT22;6230;52.390;10.256;2023-08-06T12:12:42;28.80;56.50
12329;DHT22;6230;52.390;10.256;2023-08-06T12:15:09;28.70;56.80
12329;DHT22;6230;52.390;10.256;2023-08-06T12:17:35;28.60;56.90
12329;DHT22;6230;52.390;10.256;2023-08-06T12:20:02;28.60;57.00
12329;DHT22;6230;52.390;10.256;2023-08-06T12:22:29;28.70;56.90
12329;DHT22;6230;52.390;10.256;2023-08-06T12:25:00;28.80;56.80
12329;DHT22;6230;52.390;10.256;2023-08-06T12:27:26;29.00;56.70
12329;DHT22;6230;52.390;10.256;2023-08-06T12:29:52;29.10;56.50
12329;DHT22;6230;52.390;10.256;2023-08-06T12:32:17;29.20;56.50
12329;DHT22;6230;52.390;10.256;2023-08-06T12:34:43;29.40;56.40
12329;DHT22;6230;52.390;10.256;2023-08-06T12:37:09;29.50;56.30
12329;DHT22;6230;52.390;10.256;2023-08-06T12:39:35;29.60;56.00
12329;DHT22;6230;52.390;10.256;2023-08-06T12:42:02;29.80;56.20
12329;DHT22;6230;52.390;10.256;2023-08-06T12:44:28;29.90;56.10
12329;DHT22;6230;52.390;10.256;2023-08-06T12:46:54;30.00;55.90
12329;DHT22;6230;52.390;10.256;2023-08-06T12:49:20;29.90;55.90
12329;DHT22;6230;52.390;10.256;2023-08-06T12:51:52;29.80;56.00
12329;DHT22;6230;52.390;10.256;2023-08-06T12:54:18;29.60;56.00
12329;DHT22;6230;52.390;10.256;2023-08-06T12:56:45;29.50;56.20
12329;DHT22;6230;52.390;10.256;2023-08-06T12:59:11;29.50;56.40
12329;DHT22;6230;52.390;10.256;2023-08-06T13:01:38;29.60;56.40
12329;DHT22;6230;52.390;10.256;2023-08-06T13:04:04;29.70;56.30
12329;DHT22;6230;52.390;10.256;2023-08-06T13:06:30;29.70;56.20
12329;DHT22;6230;52.390;10.256;2023-08-06T13:08:56;29.70;56.20
12329;DHT22;6230;52.390;10.256;2023-08-06T13:11:22;29.70;56.10
12329;DHT22;6230;52.390;10.256;2023-08-06T13:13:48;29.80;56.10
12329;DHT22;6230;52.390;10.256;2023-08-06T13:16:13;29.90;56.00
12329;DHT22;6230;52.390;10.256;2023-08-06T13:18:39;30.00;55.80
12329;DHT22;6230;52.390;10.256;2023-08-06T13:21:04;30.10;55.70
12329;DHT22;6230;52.390;10.256;2023-08-06T13:23:30;30.20;55.70
12329;DHT22;6230;52.390;10.256;2023-08-06T13:25:56;30.30;55.60
12329;DHT22;6230;52.390;10.256;2023-08-06T13:28:21;30.30;55.40
12329;DHT22;6230;52.390;10.256;2023-08-06T13:30:47;30.30;55.60
12329;DHT22;6230;52.390;10.256;2023-08-06T13:33:13;30.40;55.60
12329;DHT22;6230;52.390;10.256;2023-08-06T13:35:38;30.40;55.60
12329;DHT22;6230;52.390;10.256;2023-08-06T13:38:04;30.50;55.50
12329;DHT22;6230;52.390;10.256;2023-08-06T13:40:33;30.60;55.50
12329;DHT22;6230;52.390;10.256;2023-08-06T13:42:59;30.70;55.40
12329;DHT22;6230;52.390;10.256;2023-08-06T13:45:25;30.90;55.30
12329;DHT22;6230;52.390;10.256;2023-08-06T13:47:51;30.90;55.10
12329;DHT22;6230;52.390;10.256;2023-08-06T13:50:16;30.90;55.10
12329;DHT22;6230;52.390;10.256;2023-08-06T13:52:42;30.80;55.10
12329;DHT22;6230;52.390;10.256;2023-08-06T13:55:08;30.50;55.10
12329;DHT22;6230;52.390;10.256;2023-08-06T13:57:34;30.30;55.30
12329;DHT22;6230;52.390;10.256;2023-08-06T14:00:00;30.10;55.60
12329;DHT22;6230;52.390;10.256;2023-08-06T14:02:26;29.90;55.80
12329;DHT22;6230;52.390;10.256;2023-08-06T14:04:54;29.90;55.90
12329;DHT22;6230;52.390;10.256;2023-08-06T14:07:20;29.90;55.90
12329;DHT22;6230;52.390;10.256;2023-08-06T14:09:45;29.90;55.80
12329;DHT22;6230;52.390;10.256;2023-08-06T14:12:12;30.00;55.90
12329;DHT22;6230;52.390;10.256;2023-08-06T14:14:38;30.10;55.70
12329;DHT22;6230;52.390;10.256;2023-08-06T14:17:04;30.10;55.60
12329;DHT22;6230;52.390;10.256;2023-08-06T14:19:29;30.20;55.50
12329;DHT22;6230;52.390;10.256;2023-08-06T14:21:55;30.20;55.40
12329;DHT22;6230;52.390;10.256;2023-08-06T14:24:21;30.20;55.40
12329;DHT22;6230;52.390;10.256;2023-08-06T14:26:46;29.90;55.40
12329;DHT22;6230;52.390;10.256;2023-08-06T14:29:12;29.80;55.60
12329;DHT22;6230;52.390;10.256;2023-08-06T14:31:39;29.60;55.70
12329;DHT22;6230;52.390;10.256;2023-08-06T14:34:04;29.50;55.90
12329;DHT22;6230;52.390;10.256;2023-08-06T14:36:30;29.50;56.00
12329;DHT22;6230;52.390;10.256;2023-08-06T14:38:56;29.60;56.00
12329;DHT22;6230;52.390;10.256;2023-08-06T14:41:21;29.70;55.80
12329;DHT22;6230;52.390;10.256;2023-08-06T14:43:47;29.70;55.60
12329;DHT22;6230;52.390;10.256;2023-08-06T14:46:12;29.70;55.50
12329;DHT22;6230;52.390;10.256;2023-08-06T14:48:38;29.70;55.50
12329;DHT22;6230;52.390;10.256;2023-08-06T14:51:04;29.70;55.50
12329;DHT22;6230;52.390;10.256;2023-08-06T14:53:30;29.60;55.40
12329;DHT22;6230;52.390;10.256;2023-08-06T14:55:55;29.50;55.40
12329;DHT22;6230;52.390;10.256;2023-08-06T14:58:21;29.40;55.50
12329;DHT22;6230;52.390;10.256;2023-08-06T15:00:46;29.20;55.60
12329;DHT22;6230;52.390;10.256;2023-08-06T15:03:12;29.10;56.10
12329;DHT22;6230;52.390;10.256;2023-08-06T15:05:37;28.90;55.80
12329;DHT22;6230;52.390;10.256;2023-08-06T15:08:03;28.90;55.90
12329;DHT22;6230;52.390;10.256;2023-08-06T15:10:29;28.80;55.80
12329;DHT22;6230;52.390;10.256;2023-08-06T15:12:55;28.70;55.80
12329;DHT22;6230;52.390;10.256;2023-08-06T15:15:20;28.60;55.80
12329;DHT22;6230;52.390;10.256;2023-08-06T15:17:47;28.40;55.80
12329;DHT22;6230;52.390;10.256;2023-08-06T15:20:13;28.30;55.90
12329;DHT22;6230;52.390;10.256;2023-08-06T15:22:39;28.20;55.90
12329;DHT22;6230;52.390;10.256;2023-08-06T15:25:04;28.10;56.00
12329;DHT22;6230;52.390;10.256;2023-08-06T15:27:30;28.10;56.00
12329;DHT22;6230;52.390;10.256;2023-08-06T15:29:57;28.00;56.00
12329;DHT22;6230;52.390;10.256;2023-08-06T15:32:22;28.00;56.10
12329;DHT22;6230;52.390;10.256;2023-08-06T15:34:50;27.90;56.00